sensor_id;sensor_type;location;lat;lon;timestamp;pressure;altitude;pressure_sealevel;temperature;humidity
77469;BME280;68840;50.272;12.818;2023-03-30T00:00:16;95793;;;6.2;75.2
77469;BME280;68840;50.272;12.818;2023-03-30T00:02:05;95785;;;6.2;75.3
77469;BME280;68840;50.272;12.818;2023-03-30T00:04:05;95780;;;6.2;75.2
77469;BME280;68840;50.272;12.818;2023-03-30T00:06:06;95775;;;6.2;75.1
77469;BME280;68840;50.272;12.818;2023-03-30T00:08:05;95773;;;6.2;75.0
77469;BME280;68840;50.272;12.818;2023-03-30T00:10:06;95764;;;6.2;75.1
77469;BME280;68840;50.272;12.818;2023-03-30T00:12:05;95763;;;6.2;74.9
77469;BME280;68840;50.272;12.818;2023-03-30T00:14:05;95763;;;6.2;75.1
77469;BME280;68840;50.272;12.818;2023-03-30T00:16:07;95763;;;6.2;75.4
77469;BME280;68840;50.272;12.818;2023-03-30T00:18:05;95758;;;6.2;75.5
77469;BME280;68840;50.272;12.818;2023-03-30T00:20:10;95762;;;6.2;75.8
77469;BME280;68840;50.272;12.818;2023-03-30T00:22:06;95766;;;6.2;75.7
77469;BME280;68840;50.272;12.818;2023-03-30T00:24:05;95754;;;6.2;75.6
77469;BME280;68840;50.272;12.818;2023-03-30T00:26:06;95760;;;6.2;75.3
77469;BME280;68840;50.272;12.818;2023-03-30T00:28:05;95768;;;6.2;75.3
77469;BME280;68840;50.272;12.818;2023-03-30T00:30:09;95763;;;6.2;75.0
77469;BME280;68840;50.272;12.818;2023-03-30T00:32:06;95752;;;6.2;74.5
77469;BME280;68840;50.272;12.818;2023-03-30T00:34:05;95746;;;6.2;74.7
77469;BME280;68840;50.272;12.818;2023-03-30T00:36:06;95736;;;6.2;75.1
77469;BME280;68840;50.272;12.818;2023-03-30T00:38:05;95731;;;6.2;75.2
77469;BME280;68840;50.272;12.818;2023-03-30T00:40:08;95726;;;6.1;74.7
77469;BME280;68840;50.272;12.818;2023-03-30T00:42:05;95721;;;6.1;74.6
77469;BME280;68840;50.272;12.818;2023-03-30T00:44:08;95716;;;6.1;74.9
77469;BME280;68840;50.272;12.818;2023-03-30T00:46:05;95716;;;6.1;75.3
77469;BME280;68840;50.272;12.818;2023-03-30T00:48:08;95722;;;6.1;75.2
77469;BME280;68840;50.272;12.818;2023-03-30T00:50:07;95732;;;6.1;75.0
77469;BME280;68840;50.272;12.818;2023-03-30T00:52:05;95733;;;6.1;75.1
77469;BME280;68840;50.272;12.818;2023-03-30T00:54:09;95718;;;6.1;75.2
77469;BME280;68840;50.272;12.818;2023-03-30T00:56:07;95703;;;6.1;75.4
77469;BME280;68840;50.272;12.818;2023-03-30T00:58:08;95695;;;6.0;75.7
77469;BME280;68840;50.272;12.818;2023-03-30T01:00:09;95694;;;6.0;76.1
77469;BME280;68840;50.272;12.818;2023-03-30T01:02:06;95687;;;6.0;76.6
77469;BME280;68840;50.272;12.818;2023-03-30T01:04:07;95689;;;6.1;76.8
77469;BME280;68840;50.272;12.818;2023-03-30T01:06:06;95707;;;6.1;76.9
77469;BME280;68840;50.272;12.818;2023-03-30T01:08:06;95694;;;6.1;76.6
77469;BME280;68840;50.272;12.818;2023-03-30T01:10:08;95667;;;6.1;76.3
77469;BME280;68840;50.272;12.818;2023-03-30T01:12:06;95667;;;6.1;76.4
77469;BME280;68840;50.272;12.818;2023-03-30T01:14:07;95676;;;6.1;76.4
77469;BME280;68840;50.272;12.818;2023-03-30T01:16:12;95681;;;6.1;76.2
77469;BME280;68840;50.272;12.818;2023-03-30T01:18:16;95687;;;6.1;76.1
77469;BME280;68840;50.272;12.818;2023-03-30T01:20:21;95692;;;6.1;76.0
77469;BME280;68840;50.272;12.818;2023-03-30T01:22:22;95695;;;6.1;75.9
77469;BME280;68840;50.272;12.818;2023-03-30T01:26:30;95703;;;6.1;75.7
77469;BME280;68840;50.272;12.818;2023-03-30T01:28:17;95686;;;6.1;75.6
77469;BME280;68840;50.272;12.818;2023-03-30T01:30:26;95666;;;6.1;75.8
77469;BME280;68840;50.272;12.818;2023-03-30T01:32:19;95665;;;6.0;75.9
77469;BME280;68840;50.272;12.818;2023-03-30T01:34:27;95670;;;6.0;76.1
77469;BME280;68840;50.272;12.818;2023-03-30T01:36:22;95675;;;6.0;76.0
77469;BME280;68840;50.272;12.818;2023-03-30T01:40:09;95680;;;6.0;76.1
77469;BME280;68840;50.272;12.818;2023-03-30T01:42:12;95665;;;6.0;76.1
77469;BME280;68840;50.272;12.818;2023-03-30T01:44:12;95663;;;6.0;76.0
77469;BME280;68840;50.272;12.818;2023-03-30T01:46:13;95646;;;6.0;76.0
77469;BME280;68840;50.272;12.818;2023-03-30T01:48:10;95640;;;6.0;76.0
77469;BME280;68840;50.272;12.818;2023-03-30T01:50:09;95646;;;6.0;76.1
77469;BME280;68840;50.272;12.818;2023-03-30T01:52:12;95655;;;6.0;76.2
77469;BME280;68840;50.272;12.818;2023-03-30T01:54:09;95645;;;6.0;76.1
77469;BME280;68840;50.272;12.818;2023-03-30T01:56:12;95635;;;6.0;76.1
77469;BME280;68840;50.272;12.818;2023-03-30T01:58:09;95628;;;6.0;76.1
77469;BME280;68840;50.272;12.818;2023-03-30T02:00:14;95628;;;6.0;76.0
77469;BME280;68840;50.272;12.818;2023-03-30T02:02:07;95630;;;6.0;75.9
77469;BME280;68840;50.272;12.818;2023-03-30T02:04:08;95634;;;6.0;75.7
77469;BME280;68840;50.272;12.818;2023-03-30T02:06:10;95636;;;6.0;75.6
77469;BME280;68840;50.272;12.818;2023-03-30T02:08:08;95627;;;5.9;75.5
77469;BME280;68840;50.272;12.818;2023-03-30T02:10:08;95620;;;5.9;75.6
77469;BME280;68840;50.272;12.818;2023-03-30T02:12:06;95617;;;5.9;75.7
77469;BME280;68840;50.272;12.818;2023-03-30T02:14:08;95618;;;5.9;75.8
77469;BME280;68840;50.272;12.818;2023-03-30T02:16:11;95616;;;5.9;75.5
77469;BME280;68840;50.272;12.818;2023-03-30T02:18:05;95616;;;5.9;75.4
77469;BME280;68840;50.272;12.818;2023-03-30T02:20:08;95615;;;5.8;75.7
77469;BME280;68840;50.272;12.818;2023-03-30T02:22:07;95615;;;5.8;75.5
77469;BME280;68840;50.272;12.818;2023-03-30T02:24:08;95611;;;5.8;75.5
77469;BME280;68840;50.272;12.818;2023-03-30T02:26:07;95609;;;5.8;74.6
77469;BME280;68840;50.272;12.818;2023-03-30T02:28:06;95607;;;5.8;75.0
77469;BME280;68840;50.272;12.818;2023-03-30T02:30:06;95605;;;5.8;74.9
77469;BME280;68840;50.272;12.818;2023-03-30T02:32:08;95599;;;5.8;75.1
77469;BME280;68840;50.272;12.818;2023-03-30T02:34:11;95589;;;5.8;75.2
77469;BME280;68840;50.272;12.818;2023-03-30T02:36:19;95588;;;5.7;75.4
77469;BME280;68840;50.272;12.818;2023-03-30T02:38:22;95587;;;5.7;75.4
77469;BME280;68840;50.272;12.818;2023-03-30T02:40:13;95590;;;5.7;74.9
77469;BME280;68840;50.272;12.818;2023-03-30T02:42:14;95587;;;5.7;74.5
77469;BME280;68840;50.272;12.818;2023-03-30T02:44:11;95585;;;5.7;74.5
77469;BME280;68840;50.272;12.818;2023-03-30T02:46:19;95581;;;5.7;74.6
77469;BME280;68840;50.272;12.818;2023-03-30T02:48:17;95576;;;5.7;74.2
77469;BME280;68840;50.272;12.818;2023-03-30T02:50:11;95572;;;5.6;74.8
77469;BME280;68840;50.272;12.818;2023-03-30T02:52:12;95575;;;5.6;74.9
77469;BME280;68840;50.272;12.818;2023-03-30T02:54:14;95573;;;5.6;75.2
77469;BME280;68840;50.272;12.818;2023-03-30T02:56:12;95571;;;5.6;74.9
77469;BME280;68840;50.272;12.818;2023-03-30T02:58:13;95571;;;5.6;74.6
77469;BME280;68840;50.272;12.818;2023-03-30T03:00:13;95573;;;5.6;74.2
77469;BME280;68840;50.272;12.818;2023-03-30T03:02:12;95571;;;5.5;74.8
77469;BME280;68840;50.272;12.818;2023-03-30T03:04:06;95570;;;5.5;74.6
77469;BME280;68840;50.272;12.818;2023-03-30T03:06:08;95572;;;5.5;74.4
77469;BME280;68840;50.272;12.818;2023-03-30T03:08:05;95568;;;5.5;74.9
77469;BME280;68840;50.272;12.818;2023-03-30T03:10:06;95566;;;5.5;74.3
77469;BME280;68840;50.272;12.818;2023-03-30T03:12:06;95564;;;5.4;74.9
77469;BME280;68840;50.272;12.818;2023-03-30T03:14:06;95562;;;5.4;75.0
77469;BME280;68840;50.272;12.818;2023-03-30T03:16:11;95558;;;5.4;74.8
77469;BME280;68840;50.272;12.818;2023-03-30T03:18:06;95553;;;5.4;74.4
77469;BME280;68840;50.272;12.818;2023-03-30T03:20:07;95554;;;5.4;74.1
77469;BME280;68840;50.272;12.818;2023-03-30T03:22:05;95555;;;5.3;73.8
77469;BME280;68840;50.272;12.818;2023-03-30T03:24:06;95557;;;5.3;73.5
77469;BME280;68840;50.272;12.818;2023-03-30T03:26:06;95561;;;5.2;73.9
77469;BME280;68840;50.272;12.818;2023-03-30T03:28:05;95571;;;5.2;73.7
77469;BME280;68840;50.272;12.818;2023-03-30T03:30:06;95573;;;5.2;73.3
77469;BME280;68840;50.272;12.818;2023-03-30T03:32:05;95567;;;5.1;74.1
77469;BME280;68840;50.272;12.818;2023-03-30T03:34:05;95567;;;5.1;74.5
77469;BME280;68840;50.272;12.818;2023-03-30T03:36:06;95570;;;5.1;73.9
77469;BME280;68840;50.272;12.818;2023-03-30T03:38:06;95567;;;5.0;74.3
77469;BME280;68840;50.272;12.818;2023-03-30T03:40:07;95566;;;5.0;75.1
77469;BME280;68840;50.272;12.818;2023-03-30T03:42:06;95566;;;5.0;75.5
77469;BME280;68840;50.272;12.818;2023-03-30T03:44:06;95569;;;5.0;75.5
77469;BME280;68840;50.272;12.818;2023-03-30T03:46:05;95571;;;5.0;75.7
77469;BME280;68840;50.272;12.818;2023-03-30T03:48:07;95577;;;5.0;76.3
77469;BME280;68840;50.272;12.818;2023-03-30T03:50:08;95578;;;5.0;75.8
77469;BME280;68840;50.272;12.818;2023-03-30T03:52:05;95574;;;5.0;76.3
77469;BME280;68840;50.272;12.818;2023-03-30T03:54:05;95574;;;5.0;76.3
77469;BME280;68840;50.272;12.818;2023-03-30T03:56:06;95574;;;5.0;76.5
77469;BME280;68840;50.272;12.818;2023-03-30T03:58:06;95577;;;5.0;75.8
77469;BME280;68840;50.272;12.818;2023-03-30T04:00:14;95576;;;5.0;75.9
77469;BME280;68840;50.272;12.818;2023-03-30T04:02:05;95570;;;4.9;75.2
77469;BME280;68840;50.272;12.818;2023-03-30T04:04:06;95567;;;4.9;75.3
77469;BME280;68840;50.272;12.818;2023-03-30T04:06:06;95566;;;4.9;75.9
77469;BME280;68840;50.272;12.818;2023-03-30T04:08:09;95571;;;4.9;76.5
77469;BME280;68840;50.272;12.818;2023-03-30T04:10:06;95573;;;4.9;77.0
77469;BME280;68840;50.272;12.818;2023-03-30T04:12:05;95563;;;4.8;77.1
77469;BME280;68840;50.272;12.818;2023-03-30T04:14:05;95552;;;4.9;77.3
77469;BME280;68840;50.272;12.818;2023-03-30T04:16:06;95555;;;4.9;77.5
77469;BME280;68840;50.272;12.818;2023-03-30T04:18:07;95559;;;4.9;78.1
77469;BME280;68840;50.272;12.818;2023-03-30T04:20:10;95557;;;4.9;78.3
77469;BME280;68840;50.272;12.818;2023-03-30T04:22:05;95554;;;4.9;78.5
77469;BME280;68840;50.272;12.818;2023-03-30T04:24:06;95547;;;4.9;78.3
77469;BME280;68840;50.272;12.818;2023-03-30T04:26:06;95549;;;4.9;77.5
77469;BME280;68840;50.272;12.818;2023-03-30T04:28:05;95549;;;4.9;77.8
77469;BME280;68840;50.272;12.818;2023-03-30T04:30:06;95553;;;4.9;78.1
77469;BME280;68840;50.272;12.818;2023-03-30T04:32:05;95548;;;4.9;78.4
77469;BME280;68840;50.272;12.818;2023-03-30T04:34:08;95544;;;4.9;78.8
77469;BME280;68840;50.272;12.818;2023-03-30T04:36:05;95538;;;4.9;78.5
77469;BME280;68840;50.272;12.818;2023-03-30T04:38:06;95531;;;5.0;78.5
77469;BME280;68840;50.272;12.818;2023-03-30T04:40:06;95526;;;5.0;79.1
77469;BME280;68840;50.272;12.818;2023-03-30T04:42:06;95527;;;5.0;79.3
77469;BME280;68840;50.272;12.818;2023-03-30T04:44:08;95532;;;5.1;79.7
77469;BME280;68840;50.272;12.818;2023-03-30T04:46:05;95530;;;5.1;80.1
77469;BME280;68840;50.272;12.818;2023-03-30T04:48:05;95528;;;5.2;80.0
77469;BME280;68840;50.272;12.818;2023-03-30T04:50:05;95527;;;5.2;79.8
77469;BME280;68840;50.272;12.818;2023-03-30T04:52:05;95534;;;5.2;79.7
77469;BME280;68840;50.272;12.818;2023-03-30T04:54:05;95540;;;5.3;79.5
77469;BME280;68840;50.272;12.818;2023-03-30T04:56:05;95542;;;5.3;79.3
77469;BME280;68840;50.272;12.818;2023-03-30T04:58:06;95543;;;5.3;79.1
77469;BME280;68840;50.272;12.818;2023-03-30T05:00:06;95539;;;5.3;79.0
77469;BME280;68840;50.272;12.818;2023-03-30T05:02:06;95535;;;5.3;79.0
77469;BME280;68840;50.272;12.818;2023-03-30T05:04:05;95531;;;5.4;79.2
77469;BME280;68840;50.272;12.818;2023-03-30T05:06:06;95527;;;5.4;79.5
77469;BME280;68840;50.272;12.818;2023-03-30T05:08:05;95525;;;5.4;79.6
77469;BME280;68840;50.272;12.818;2023-03-30T05:10:06;95528;;;5.5;79.8
77469;BME280;68840;50.272;12.818;2023-03-30T05:12:05;95529;;;5.5;80.1
77469;BME280;68840;50.272;12.818;2023-03-30T05:14:05;95540;;;5.6;79.5
77469;BME280;68840;50.272;12.818;2023-03-30T05:16:06;95546;;;5.6;79.2
77469;BME280;68840;50.272;12.818;2023-03-30T05:18:05;95551;;;5.7;78.9
77469;BME280;68840;50.272;12.818;2023-03-30T05:20:07;95556;;;5.7;78.8
77469;BME280;68840;50.272;12.818;2023-03-30T05:22:06;95561;;;5.7;78.7
77469;BME280;68840;50.272;12.818;2023-03-30T05:24:06;95569;;;5.7;78.9
77469;BME280;68840;50.272;12.818;2023-03-30T05:26:06;95583;;;5.8;79.7
77469;BME280;68840;50.272;12.818;2023-03-30T05:28:05;95580;;;5.8;80.1
77469;BME280;68840;50.272;12.818;2023-03-30T05:30:07;95577;;;5.9;80.3
77469;BME280;68840;50.272;12.818;2023-03-30T05:32:05;95582;;;6.0;80.2
77469;BME280;68840;50.272;12.818;2023-03-30T05:34:06;95580;;;6.1;80.0
77469;BME280;68840;50.272;12.818;2023-03-30T05:36:06;95587;;;6.2;79.7
77469;BME280;68840;50.272;12.818;2023-03-30T05:38:06;95590;;;6.3;79.6
77469;BME280;68840;50.272;12.818;2023-03-30T05:40:08;95586;;;6.4;79.4
77469;BME280;68840;50.272;12.818;2023-03-30T05:42:06;95580;;;6.5;79.0
77469;BME280;68840;50.272;12.818;2023-03-30T05:44:06;95579;;;6.5;78.8
77469;BME280;68840;50.272;12.818;2023-03-30T05:46:06;95576;;;6.6;78.9
77469;BME280;68840;50.272;12.818;2023-03-30T05:48:05;95573;;;6.6;79.0
77469;BME280;68840;50.272;12.818;2023-03-30T05:50:07;95570;;;6.7;79.0
77469;BME280;68840;50.272;12.818;2023-03-30T05:52:05;95567;;;6.8;79.2
77469;BME280;68840;50.272;12.818;2023-03-30T05:54:05;95572;;;6.9;78.9
77469;BME280;68840;50.272;12.818;2023-03-30T05:56:06;95572;;;7.0;78.8
77469;BME280;68840;50.272;12.818;2023-03-30T05:58:05;95564;;;7.1;78.5
77469;BME280;68840;50.272;12.818;2023-03-30T06:00:09;95566;;;7.2;78.2
77469;BME280;68840;50.272;12.818;2023-03-30T06:02:08;95567;;;7.3;77.9
77469;BME280;68840;50.272;12.818;2023-03-30T06:04:06;95570;;;7.3;77.9
77469;BME280;68840;50.272;12.818;2023-03-30T06:06:06;95575;;;7.4;77.8
77469;BME280;68840;50.272;12.818;2023-03-30T06:08:07;95571;;;7.4;77.6
77469;BME280;68840;50.272;12.818;2023-03-30T06:10:06;95563;;;7.4;77.5
77469;BME280;68840;50.272;12.818;2023-03-30T06:12:05;95563;;;7.5;77.5
77469;BME280;68840;50.272;12.818;2023-03-30T06:14:05;95563;;;7.5;77.5
77469;BME280;68840;50.272;12.818;2023-03-30T06:16:06;95560;;;7.6;77.4
77469;BME280;68840;50.272;12.818;2023-03-30T06:18:05;95560;;;7.7;77.4
77469;BME280;68840;50.272;12.818;2023-03-30T06:20:10;95555;;;7.7;77.3
77469;BME280;68840;50.272;12.818;2023-03-30T06:22:05;95555;;;7.8;77.1
77469;BME280;68840;50.272;12.818;2023-03-30T06:24:05;95562;;;7.9;77.0
77469;BME280;68840;50.272;12.818;2023-03-30T06:26:06;95558;;;8.0;76.9
77469;BME280;68840;50.272;12.818;2023-03-30T06:28:05;95550;;;8.1;76.8
77469;BME280;68840;50.272;12.818;2023-03-30T06:30:08;95543;;;8.2;76.4
77469;BME280;68840;50.272;12.818;2023-03-30T06:32:05;95544;;;8.3;76.7
77469;BME280;68840;50.272;12.818;2023-03-30T06:34:05;95541;;;8.4;76.2
77469;BME280;68840;50.272;12.818;2023-03-30T06:36:09;95541;;;8.5;75.7
77469;BME280;68840;50.272;12.818;2023-03-30T06:38:05;95545;;;8.5;75.4
77469;BME280;68840;50.272;12.818;2023-03-30T06:40:12;95553;;;8.6;75.0
77469;BME280;68840;50.272;12.818;2023-03-30T06:42:05;95561;;;8.6;74.9
77469;BME280;68840;50.272;12.818;2023-03-30T06:44:05;95554;;;8.6;74.3
77469;BME280;68840;50.272;12.818;2023-03-30T06:46:06;95544;;;8.6;74.1
77469;BME280;68840;50.272;12.818;2023-03-30T06:48:06;95545;;;8.6;74.3
77469;BME280;68840;50.272;12.818;2023-03-30T06:50:06;95543;;;8.6;74.1
77469;BME280;68840;50.272;12.818;2023-03-30T06:52:06;95539;;;8.6;74.2
77469;BME280;68840;50.272;12.818;2023-03-30T06:54:05;95532;;;8.6;74.5
77469;BME280;68840;50.272;12.818;2023-03-30T06:56:06;95525;;;8.7;74.4
77469;BME280;68840;50.272;12.818;2023-03-30T06:58:05;95518;;;8.7;74.4
77469;BME280;68840;50.272;12.818;2023-03-30T07:00:13;95507;;;8.8;74.3
77469;BME280;68840;50.272;12.818;2023-03-30T07:02:05;95503;;;8.8;74.1
77469;BME280;68840;50.272;12.818;2023-03-30T07:04:06;95512;;;8.9;75.4
77469;BME280;68840;50.272;12.818;2023-03-30T07:06:07;95513;;;8.9;75.0
77469;BME280;68840;50.272;12.818;2023-03-30T07:08:06;95522;;;9.0;75.1
77469;BME280;68840;50.272;12.818;2023-03-30T07:10:09;95526;;;9.2;75.2
77469;BME280;68840;50.272;12.818;2023-03-30T07:12:06;95523;;;9.3;75.2
77469;BME280;68840;50.272;12.818;2023-03-30T07:14:09;95520;;;9.5;74.2
77469;BME280;68840;50.272;12.818;2023-03-30T07:16:06;95503;;;9.7;73.3
77469;BME280;68840;50.272;12.818;2023-03-30T07:18:06;95497;;;9.8;73.0
77469;BME280;68840;50.272;12.818;2023-03-30T07:20:07;95489;;;9.9;72.9
77469;BME280;68840;50.272;12.818;2023-03-30T07:22:05;95484;;;10.0;73.3
77469;BME280;68840;50.272;12.818;2023-03-30T07:24:07;95498;;;10.1;73.1
77469;BME280;68840;50.272;12.818;2023-03-30T07:26:06;95500;;;10.2;72.4
77469;BME280;68840;50.272;12.818;2023-03-30T07:28:05;95494;;;10.3;71.7
77469;BME280;68840;50.272;12.818;2023-03-30T07:30:08;95492;;;10.4;71.7
77469;BME280;68840;50.272;12.818;2023-03-30T07:32:05;95495;;;10.4;71.0
77469;BME280;68840;50.272;12.818;2023-03-30T07:34:06;95499;;;10.4;70.9
77469;BME280;68840;50.272;12.818;2023-03-30T07:36:06;95499;;;10.5;70.9
77469;BME280;68840;50.272;12.818;2023-03-30T07:38:05;95499;;;10.5;70.5
77469;BME280;68840;50.272;12.818;2023-03-30T07:40:09;95508;;;10.5;70.1
77469;BME280;68840;50.272;12.818;2023-03-30T07:42:06;95509;;;10.4;70.5
77469;BME280;68840;50.272;12.818;2023-03-30T07:44:05;95508;;;10.4;70.8
77469;BME280;68840;50.272;12.818;2023-03-30T07:46:06;95498;;;10.4;71.1
77469;BME280;68840;50.272;12.818;2023-03-30T07:48:05;95492;;;10.4;71.3
77469;BME280;68840;50.272;12.818;2023-03-30T07:50:06;95479;;;10.3;70.9
77469;BME280;68840;50.272;12.818;2023-03-30T07:52:06;95470;;;10.3;71.2
77469;BME280;68840;50.272;12.818;2023-03-30T07:54:05;95463;;;10.2;71.0
77469;BME280;68840;50.272;12.818;2023-03-30T07:56:06;95465;;;10.2;71.2
77469;BME280;68840;50.272;12.818;2023-03-30T07:58:06;95474;;;10.1;71.4
77469;BME280;68840;50.272;12.818;2023-03-30T08:00:09;95474;;;10.0;71.7
77469;BME280;68840;50.272;12.818;2023-03-30T08:02:06;95468;;;10.0;72.0
77469;BME280;68840;50.272;12.818;2023-03-30T08:04:06;95456;;;9.9;72.0
77469;BME280;68840;50.272;12.818;2023-03-30T08:06:05;95455;;;9.9;72.3
77469;BME280;68840;50.272;12.818;2023-03-30T08:08:06;95459;;;9.9;72.3
77469;BME280;68840;50.272;12.818;2023-03-30T08:10:07;95460;;;9.9;72.1
77469;BME280;68840;50.272;12.818;2023-03-30T08:12:05;95457;;;9.9;72.4
77469;BME280;68840;50.272;12.818;2023-03-30T08:14:05;95455;;;9.9;71.9
77469;BME280;68840;50.272;12.818;2023-03-30T08:16:07;95453;;;9.9;72.2
77469;BME280;68840;50.272;12.818;2023-03-30T08:18:06;95454;;;9.8;72.4
77469;BME280;68840;50.272;12.818;2023-03-30T08:20:10;95451;;;9.8;72.2
77469;BME280;68840;50.272;12.818;2023-03-30T08:22:05;95461;;;9.8;72.1
77469;BME280;68840;50.272;12.818;2023-03-30T08:24:06;95476;;;9.8;72.2
77469;BME280;68840;50.272;12.818;2023-03-30T08:26:05;95487;;;9.8;72.6
77469;BME280;68840;50.272;12.818;2023-03-30T08:28:05;95493;;;9.7;73.2
77469;BME280;68840;50.272;12.818;2023-03-30T08:30:06;95502;;;9.7;73.4
77469;BME280;68840;50.272;12.818;2023-03-30T08:32:05;95507;;;9.7;73.4
77469;BME280;68840;50.272;12.818;2023-03-30T08:34:06;95510;;;9.6;73.7
77469;BME280;68840;50.272;12.818;2023-03-30T08:36:05;95498;;;9.6;73.7
77469;BME280;68840;50.272;12.818;2023-03-30T08:38:05;95496;;;9.6;73.6
77469;BME280;68840;50.272;12.818;2023-03-30T08:40:09;95497;;;9.5;73.8
77469;BME280;68840;50.272;12.818;2023-03-30T08:42:13;95492;;;9.5;74.0
77469;BME280;68840;50.272;12.818;2023-03-30T08:44:10;95489;;;9.5;74.1
77469;BME280;68840;50.272;12.818;2023-03-30T08:46:11;95488;;;9.4;73.9
77469;BME280;68840;50.272;12.818;2023-03-30T08:48:13;95477;;;9.4;74.1
77469;BME280;68840;50.272;12.818;2023-03-30T08:50:10;95482;;;9.4;74.6
77469;BME280;68840;50.272;12.818;2023-03-30T08:52:09;95483;;;9.4;74.8
77469;BME280;68840;50.272;12.818;2023-03-30T08:54:08;95494;;;9.4;74.8
77469;BME280;68840;50.272;12.818;2023-03-30T08:56:09;95509;;;9.4;74.8
77469;BME280;68840;50.272;12.818;2023-03-30T08:58:13;95513;;;9.3;74.6
77469;BME280;68840;50.272;12.818;2023-03-30T09:00:13;95520;;;9.3;74.9
77469;BME280;68840;50.272;12.818;2023-03-30T09:02:14;95533;;;9.3;75.3
77469;BME280;68840;50.272;12.818;2023-03-30T09:04:16;95551;;;9.3;76.0
77469;BME280;68840;50.272;12.818;2023-03-30T09:06:09;95555;;;9.3;76.4
77469;BME280;68840;50.272;12.818;2023-03-30T09:08:11;95559;;;9.3;76.4
77469;BME280;68840;50.272;12.818;2023-03-30T09:10:11;95559;;;9.3;76.4
77469;BME280;68840;50.272;12.818;2023-03-30T09:12:12;95565;;;9.3;76.4
77469;BME280;68840;50.272;12.818;2023-03-30T09:14:11;95570;;;9.2;76.5
77469;BME280;68840;50.272;12.818;2023-03-30T09:16:11;95574;;;9.2;76.8
77469;BME280;68840;50.272;12.818;2023-03-30T09:18:13;95579;;;9.2;76.8
77469;BME280;68840;50.272;12.818;2023-03-30T09:20:10;95578;;;9.2;76.8
77469;BME280;68840;50.272;12.818;2023-03-30T09:22:06;95581;;;9.2;77.0
77469;BME280;68840;50.272;12.818;2023-03-30T09:24:11;95578;;;9.2;77.1
77469;BME280;68840;50.272;12.818;2023-03-30T09:26:14;95579;;;9.2;77.2
77469;BME280;68840;50.272;12.818;2023-03-30T09:28:11;95581;;;9.2;77.4
77469;BME280;68840;50.272;12.818;2023-03-30T09:30:16;95585;;;9.2;77.5
77469;BME280;68840;50.272;12.818;2023-03-30T09:32:12;95588;;;9.2;77.7
77469;BME280;68840;50.272;12.818;2023-03-30T09:34:12;95590;;;9.2;77.9
77469;BME280;68840;50.272;12.818;2023-03-30T09:36:12;95589;;;9.2;78.0
77469;BME280;68840;50.272;12.818;2023-03-30T09:38:08;95589;;;9.2;78.1
77469;BME280;68840;50.272;12.818;2023-03-30T09:40:19;95588;;;9.2;78.1
77469;BME280;68840;50.272;12.818;2023-03-30T09:42:18;95590;;;9.2;78.3
77469;BME280;68840;50.272;12.818;2023-03-30T09:44:12;95582;;;9.2;78.3
77469;BME280;68840;50.272;12.818;2023-03-30T09:46:06;95579;;;9.2;78.5
77469;BME280;68840;50.272;12.818;2023-03-30T09:48:07;95573;;;9.2;78.7
77469;BME280;68840;50.272;12.818;2023-03-30T09:50:08;95569;;;9.2;78.8
77469;BME280;68840;50.272;12.818;2023-03-30T09:52:13;95568;;;9.2;78.9
77469;BME280;68840;50.272;12.818;2023-03-30T09:54:05;95565;;;9.2;78.8
77469;BME280;68840;50.272;12.818;2023-03-30T09:56:12;95568;;;9.2;78.6
77469;BME280;68840;50.272;12.818;2023-03-30T09:58:12;95567;;;9.2;78.8
77469;BME280;68840;50.272;12.818;2023-03-30T10:00:24;95571;;;9.2;78.7
77469;BME280;68840;50.272;12.818;2023-03-30T10:02:08;95572;;;9.2;78.7
77469;BME280;68840;50.272;12.818;2023-03-30T10:04:08;95575;;;9.2;78.7
77469;BME280;68840;50.272;12.818;2023-03-30T10:06:07;95581;;;9.2;78.5
77469;BME280;68840;50.272;12.818;2023-03-30T10:08:17;95585;;;9.2;78.6
77469;BME280;68840;50.272;12.818;2023-03-30T10:10:15;95578;;;9.1;78.6
77469;BME280;68840;50.272;12.818;2023-03-30T10:12:05;95572;;;9.1;78.8
77469;BME280;68840;50.272;12.818;2023-03-30T10:14:19;95570;;;9.1;78.9
77469;BME280;68840;50.272;12.818;2023-03-30T10:16:09;95564;;;9.1;78.9
77469;BME280;68840;50.272;12.818;2023-03-30T10:18:20;95552;;;9.1;79.1
77469;BME280;68840;50.272;12.818;2023-03-30T10:20:20;95544;;;9.1;79.3
77469;BME280;68840;50.272;12.818;2023-03-30T10:22:14;95537;;;9.1;79.5
77469;BME280;68840;50.272;12.818;2023-03-30T10:24:18;95530;;;9.1;79.8
77469;BME280;68840;50.272;12.818;2023-03-30T10:26:13;95519;;;9.2;79.9
77469;BME280;68840;50.272;12.818;2023-03-30T10:28:15;95514;;;9.2;80.1
77469;BME280;68840;50.272;12.818;2023-03-30T10:30:08;95510;;;9.3;80.1
77469;BME280;68840;50.272;12.818;2023-03-30T10:32:10;95504;;;9.3;80.3
77469;BME280;68840;50.272;12.818;2023-03-30T10:34:14;95497;;;9.4;80.3
77469;BME280;68840;50.272;12.818;2023-03-30T10:36:06;95491;;;9.5;80.4
77469;BME280;68840;50.272;12.818;2023-03-30T10:38:06;95482;;;9.5;80.3
77469;BME280;68840;50.272;12.818;2023-03-30T10:40:15;95491;;;9.6;80.6
77469;BME280;68840;50.272;12.818;2023-03-30T10:42:08;95489;;;9.7;80.5
77469;BME280;68840;50.272;12.818;2023-03-30T10:44:18;95497;;;9.7;80.6
77469;BME280;68840;50.272;12.818;2023-03-30T10:46:09;95502;;;9.8;80.4
77469;BME280;68840;50.272;12.818;2023-03-30T10:48:16;95503;;;9.9;80.2
77469;BME280;68840;50.272;12.818;2023-03-30T10:50:14;95501;;;9.9;80.1
77469;BME280;68840;50.272;12.818;2023-03-30T10:52:13;95499;;;9.9;79.9
77469;BME280;68840;50.272;12.818;2023-03-30T10:54:12;95498;;;10.0;79.7
77469;BME280;68840;50.272;12.818;2023-03-30T10:56:12;95490;;;10.0;79.6
77469;BME280;68840;50.272;12.818;2023-03-30T10:58:13;95484;;;10.0;79.6
77469;BME280;68840;50.272;12.818;2023-03-30T11:00:17;95481;;;10.0;79.6
77469;BME280;68840;50.272;12.818;2023-03-30T11:02:20;95478;;;10.1;79.4
77469;BME280;68840;50.272;12.818;2023-03-30T11:04:10;95474;;;10.1;79.4
77469;BME280;68840;50.272;12.818;2023-03-30T11:06:11;95473;;;10.1;79.4
77469;BME280;68840;50.272;12.818;2023-03-30T11:08:10;95474;;;10.1;79.4
77469;BME280;68840;50.272;12.818;2023-03-30T11:10:12;95475;;;10.1;79.4
77469;BME280;68840;50.272;12.818;2023-03-30T11:12:10;95476;;;10.2;79.5
77469;BME280;68840;50.272;12.818;2023-03-30T11:14:11;95474;;;10.2;79.7
77469;BME280;68840;50.272;12.818;2023-03-30T11:16:11;95471;;;10.3;79.5
77469;BME280;68840;50.272;12.818;2023-03-30T11:18:12;95460;;;10.3;79.4
77469;BME280;68840;50.272;12.818;2023-03-30T11:20:17;95459;;;10.4;79.6
77469;BME280;68840;50.272;12.818;2023-03-30T11:22:13;95464;;;10.4;79.3